sensor_id;sensor_type;location;lat;lon;timestamp;temperature;humidity
19174;DHT22;9719;49.322;8.536;2023-03-23T00:00:30;15.70;76.80
19174;DHT22;9719;49.322;8.536;2023-03-23T00:05:32;15.80;76.20
19174;DHT22;9719;49.322;8.536;2023-03-23T00:10:37;15.70;76.20
19174;DHT22;9719;49.322;8.536;2023-03-23T00:15:41;15.70;76.30
19174;DHT22;9719;49.322;8.536;2023-03-23T00:20:43;15.70;76.40
19174;DHT22;9719;49.322;8.536;2023-03-23T00:25:46;15.70;76.50
19174;DHT22;9719;49.322;8.536;2023-03-23T00:30:54;15.60;76.70
19174;DHT22;9719;49.322;8.536;2023-03-23T00:35:57;15.60;76.90
19174;DHT22;9719;49.322;8.536;2023-03-23T00:40:58;15.60;76.50
19174;DHT22;9719;49.322;8.536;2023-03-23T00:46:04;15.50;76.50
19174;DHT22;9719;49.322;8.536;2023-03-23T00:51:10;15.50;76.60
19174;DHT22;9719;49.322;8.536;2023-03-23T00:56:12;15.50;76.60
19174;DHT22;9719;49.322;8.536;2023-03-23T01:01:15;15.60;76.70
19174;DHT22;9719;49.322;8.536;2023-03-23T01:06:17;15.60;76.70
19174;DHT22;9719;49.322;8.536;2023-03-23T01:11:20;15.50;76.90
19174;DHT22;9719;49.322;8.536;2023-03-23T01:16:23;15.40;76.90
19174;DHT22;9719;49.322;8.536;2023-03-23T01:21:25;15.30;77.30
19174;DHT22;9719;49.322;8.536;2023-03-23T01:26:28;15.10;77.80
19174;DHT22;9719;49.322;8.536;2023-03-23T01:31:32;15.00;77.90
19174;DHT22;9719;49.322;8.536;2023-03-23T01:36:35;15.00;78.10
19174;DHT22;9719;49.322;8.536;2023-03-23T01:41:36;15.00;78.00
19174;DHT22;9719;49.322;8.536;2023-03-23T01:46:43;15.00;78.20
19174;DHT22;9719;49.322;8.536;2023-03-23T01:51:47;14.90;78.30
19174;DHT22;9719;49.322;8.536;2023-03-23T01:56:53;15.00;78.70
19174;DHT22;9719;49.322;8.536;2023-03-23T02:01:58;15.00;78.90
19174;DHT22;9719;49.322;8.536;2023-03-23T02:07:01;15.00;78.90
19174;DHT22;9719;49.322;8.536;2023-03-23T02:12:04;15.00;78.90
19174;DHT22;9719;49.322;8.536;2023-03-23T02:17:10;15.00;78.90
19174;DHT22;9719;49.322;8.536;2023-03-23T02:22:28;15.00;79.40
19174;DHT22;9719;49.322;8.536;2023-03-23T02:27:47;15.00;79.30
19174;DHT22;9719;49.322;8.536;2023-03-23T02:38:30;14.90;80.20
19174;DHT22;9719;49.322;8.536;2023-03-23T02:43:36;14.90;80.80
19174;DHT22;9719;49.322;8.536;2023-03-23T02:48:41;14.80;81.20
19174;DHT22;9719;49.322;8.536;2023-03-23T02:53:46;14.80;81.20
19174;DHT22;9719;49.322;8.536;2023-03-23T02:58:49;14.80;81.30
19174;DHT22;9719;49.322;8.536;2023-03-23T03:03:51;14.70;81.50
19174;DHT22;9719;49.322;8.536;2023-03-23T03:09:01;14.70;82.00
19174;DHT22;9719;49.322;8.536;2023-03-23T03:14:06;14.70;81.90
19174;DHT22;9719;49.322;8.536;2023-03-23T03:19:13;14.70;82.60
19174;DHT22;9719;49.322;8.536;2023-03-23T03:24:19;14.70;83.30
19174;DHT22;9719;49.322;8.536;2023-03-23T03:29:25;14.60;82.40
19174;DHT22;9719;49.322;8.536;2023-03-23T03:34:27;14.60;82.40
19174;DHT22;9719;49.322;8.536;2023-03-23T03:39:36;14.70;82.40
19174;DHT22;9719;49.322;8.536;2023-03-23T03:44:37;14.70;82.30
19174;DHT22;9719;49.322;8.536;2023-03-23T03:49:39;14.80;82.30
19174;DHT22;9719;49.322;8.536;2023-03-23T03:54:43;14.80;82.40
19174;DHT22;9719;49.322;8.536;2023-03-23T03:59:45;14.80;82.70
19174;DHT22;9719;49.322;8.536;2023-03-23T04:04:48;14.90;82.70
19174;DHT22;9719;49.322;8.536;2023-03-23T04:09:51;14.90;82.90
19174;DHT22;9719;49.322;8.536;2023-03-23T04:14:54;15.00;83.30
19174;DHT22;9719;49.322;8.536;2023-03-23T04:19:56;15.10;83.20
19174;DHT22;9719;49.322;8.536;2023-03-23T04:25:01;15.10;83.00
19174;DHT22;9719;49.322;8.536;2023-03-23T04:30:07;15.10;83.30
19174;DHT22;9719;49.322;8.536;2023-03-23T04:35:12;15.10;83.40
19174;DHT22;9719;49.322;8.536;2023-03-23T04:40:17;15.20;83.70
19174;DHT22;9719;49.322;8.536;2023-03-23T04:45:20;15.20;83.90
19174;DHT22;9719;49.322;8.536;2023-03-23T04:50:24;15.20;84.10
19174;DHT22;9719;49.322;8.536;2023-03-23T04:55:28;15.20;85.60
19174;DHT22;9719;49.322;8.536;2023-03-23T05:00:30;15.10;87.20
19174;DHT22;9719;49.322;8.536;2023-03-23T05:05:31;14.80;90.40
19174;DHT22;9719;49.322;8.536;2023-03-23T05:10:36;14.40;93.20
19174;DHT22;9719;49.322;8.536;2023-03-23T05:15:38;13.90;99.90
19174;DHT22;9719;49.322;8.536;2023-03-23T05:20:40;13.60;99.90
19174;DHT22;9719;49.322;8.536;2023-03-23T05:25:43;13.50;99.90
19174;DHT22;9719;49.322;8.536;2023-03-23T05:30:48;13.60;98.90
19174;DHT22;9719;49.322;8.536;2023-03-23T05:35:50;13.70;99.50
19174;DHT22;9719;49.322;8.536;2023-03-23T05:40:53;13.80;99.90
19174;DHT22;9719;49.322;8.536;2023-03-23T05:45:55;13.90;98.90
19174;DHT22;9719;49.322;8.536;2023-03-23T05:50:57;14.10;98.20
19174;DHT22;9719;49.322;8.536;2023-03-23T05:56:01;14.30;97.10
19174;DHT22;9719;49.322;8.536;2023-03-23T06:01:06;14.40;95.90
19174;DHT22;9719;49.322;8.536;2023-03-23T06:06:09;14.50;95.50
19174;DHT22;9719;49.322;8.536;2023-03-23T06:11:13;14.60;94.80
19174;DHT22;9719;49.322;8.536;2023-03-23T06:16:15;14.70;94.20
19174;DHT22;9719;49.322;8.536;2023-03-23T06:21:17;14.90;94.00
19174;DHT22;9719;49.322;8.536;2023-03-23T06:26:25;15.00;93.60
19174;DHT22;9719;49.322;8.536;2023-03-23T06:31:28;15.20;93.30
19174;DHT22;9719;49.322;8.536;2023-03-23T06:36:30;15.30;92.70
19174;DHT22;9719;49.322;8.536;2023-03-23T06:41:34;15.40;91.70
19174;DHT22;9719;49.322;8.536;2023-03-23T06:46:36;15.60;90.90
19174;DHT22;9719;49.322;8.536;2023-03-23T06:51:37;15.70;90.20
19174;DHT22;9719;49.322;8.536;2023-03-23T06:56:41;15.70;90.00
19174;DHT22;9719;49.322;8.536;2023-03-23T07:01:43;15.80;89.10
19174;DHT22;9719;49.322;8.536;2023-03-23T07:06:45;15.90;88.00
19174;DHT22;9719;49.322;8.536;2023-03-23T07:11:49;16.10;87.40
19174;DHT22;9719;49.322;8.536;2023-03-23T07:16:52;16.20;86.20
19174;DHT22;9719;49.322;8.536;2023-03-23T07:21:54;16.20;85.70
19174;DHT22;9719;49.322;8.536;2023-03-23T07:26:58;16.20;85.80
19174;DHT22;9719;49.322;8.536;2023-03-23T07:32:00;16.10;86.20
19174;DHT22;9719;49.322;8.536;2023-03-23T07:37:03;16.10;86.60
19174;DHT22;9719;49.322;8.536;2023-03-23T07:42:07;16.20;86.10
19174;DHT22;9719;49.322;8.536;2023-03-23T07:47:09;16.20;86.70
19174;DHT22;9719;49.322;8.536;2023-03-23T07:52:11;16.20;88.60
19174;DHT22;9719;49.322;8.536;2023-03-23T07:57:14;16.30;88.60
19174;DHT22;9719;49.322;8.536;2023-03-23T08:02:16;16.50;89.00
19174;DHT22;9719;49.322;8.536;2023-03-23T08:07:18;16.80;89.10
19174;DHT22;9719;49.322;8.536;2023-03-23T08:12:22;17.00;88.60
19174;DHT22;9719;49.322;8.536;2023-03-23T08:17:24;17.20;86.90
19174;DHT22;9719;49.322;8.536;2023-03-23T08:22:26;17.30;85.60
19174;DHT22;9719;49.322;8.536;2023-03-23T08:27:31;17.10;86.10
19174;DHT22;9719;49.322;8.536;2023-03-23T08:32:33;16.90;87.00
19174;DHT22;9719;49.322;8.536;2023-03-23T08:37:36;16.90;87.50
19174;DHT22;9719;49.322;8.536;2023-03-23T08:42:40;17.20;86.90
19174;DHT22;9719;49.322;8.536;2023-03-23T08:47:44;17.30;86.60
19174;DHT22;9719;49.322;8.536;2023-03-23T08:52:46;17.10;88.10
19174;DHT22;9719;49.322;8.536;2023-03-23T08:57:51;17.40;87.70
19174;DHT22;9719;49.322;8.536;2023-03-23T09:02:54;17.80;90.20
19174;DHT22;9719;49.322;8.536;2023-03-23T09:07:57;18.00;87.50
19174;DHT22;9719;49.322;8.536;2023-03-23T09:13:01;17.80;86.60
19174;DHT22;9719;49.322;8.536;2023-03-23T09:18:03;17.70;89.10
19174;DHT22;9719;49.322;8.536;2023-03-23T09:23:05;17.50;91.10
19174;DHT22;9719;49.322;8.536;2023-03-23T09:28:08;17.40;91.40
19174;DHT22;9719;49.322;8.536;2023-03-23T09:33:10;17.30;90.90
19174;DHT22;9719;49.322;8.536;2023-03-23T09:38:12;17.20;88.90
19174;DHT22;9719;49.322;8.536;2023-03-23T09:43:49;17.10;87.10
19174;DHT22;9719;49.322;8.536;2023-03-23T09:48:56;17.10;87.40
19174;DHT22;9719;49.322;8.536;2023-03-23T09:54:00;17.20;86.70
19174;DHT22;9719;49.322;8.536;2023-03-23T09:59:12;17.40;85.30
19174;DHT22;9719;49.322;8.536;2023-03-23T10:04:25;18.20;84.40
19174;DHT22;9719;49.322;8.536;2023-03-23T10:09:28;18.90;81.50
19174;DHT22;9719;49.322;8.536;2023-03-23T10:14:47;19.70;79.50
19174;DHT22;9719;49.322;8.536;2023-03-23T10:19:53;20.20;78.30
19174;DHT22;9719;49.322;8.536;2023-03-23T10:31:13;20.70;73.20
19174;DHT22;9719;49.322;8.536;2023-03-23T10:36:50;20.30;74.50
19174;DHT22;9719;49.322;8.536;2023-03-23T10:41:53;20.00;75.40
19174;DHT22;9719;49.322;8.536;2023-03-23T10:47:00;19.90;75.30
19174;DHT22;9719;49.322;8.536;2023-03-23T10:52:09;19.70;77.10
19174;DHT22;9719;49.322;8.536;2023-03-23T10:57:25;19.40;79.60
19174;DHT22;9719;49.322;8.536;2023-03-23T11:02:38;18.80;82.60
19174;DHT22;9719;49.322;8.536;2023-03-23T11:07:41;18.80;83.40
19174;DHT22;9719;49.322;8.536;2023-03-23T11:12:49;19.00;84.10
19174;DHT22;9719;49.322;8.536;2023-03-23T11:18:01;18.60;84.10
19174;DHT22;9719;49.322;8.536;2023-03-23T11:23:17;18.10;90.90
19174;DHT22;9719;49.322;8.536;2023-03-23T11:28:21;17.80;93.50
19174;DHT22;9719;49.322;8.536;2023-03-23T11:33:25;18.40;90.90
19174;DHT22;9719;49.322;8.536;2023-03-23T11:38:30;19.10;88.80
19174;DHT22;9719;49.322;8.536;2023-03-23T11:43:38;19.60;85.40
19174;DHT22;9719;49.322;8.536;2023-03-23T11:48:46;19.60;83.60
19174;DHT22;9719;49.322;8.536;2023-03-23T11:53:57;19.40;82.80
19174;DHT22;9719;49.322;8.536;2023-03-23T11:59:01;19.30;83.40
19174;DHT22;9719;49.322;8.536;2023-03-23T12:04:23;19.10;84.00
19174;DHT22;9719;49.322;8.536;2023-03-23T12:09:40;18.80;85.40
19174;DHT22;9719;49.322;8.536;2023-03-23T12:14:54;18.90;84.50
19174;DHT22;9719;49.322;8.536;2023-03-23T12:20:16;18.80;83.80
19174;DHT22;9719;49.322;8.536;2023-03-23T12:31:03;18.80;82.60
19174;DHT22;9719;49.322;8.536;2023-03-23T12:36:15;18.70;82.50
19174;DHT22;9719;49.322;8.536;2023-03-23T12:41:24;18.60;82.40
19174;DHT22;9719;49.322;8.536;2023-03-23T12:52:12;18.40;82.60
19174;DHT22;9719;49.322;8.536;2023-03-23T12:57:18;18.40;83.00
19174;DHT22;9719;49.322;8.536;2023-03-23T13:02:23;18.30;83.50
19174;DHT22;9719;49.322;8.536;2023-03-23T13:07:32;18.20;83.30
19174;DHT22;9719;49.322;8.536;2023-03-23T13:12:35;18.00;83.60
19174;DHT22;9719;49.322;8.536;2023-03-23T13:17:46;18.00;84.90
19174;DHT22;9719;49.322;8.536;2023-03-23T13:22:55;18.20;83.30
19174;DHT22;9719;49.322;8.536;2023-03-23T13:28:00;18.00;83.70
19174;DHT22;9719;49.322;8.536;2023-03-23T13:33:04;17.80;83.70
19174;DHT22;9719;49.322;8.536;2023-03-23T13:38:19;17.60;84.70
19174;DHT22;9719;49.322;8.536;2023-03-23T13:43:27;17.50;85.40
19174;DHT22;9719;49.322;8.536;2023-03-23T13:48:40;17.30;85.80
19174;DHT22;9719;49.322;8.536;2023-03-23T13:53:47;17.20;86.10
19174;DHT22;9719;49.322;8.536;2023-03-23T13:58:51;17.10;86.20
19174;DHT22;9719;49.322;8.536;2023-03-23T14:03:55;17.10;86.00
19174;DHT22;9719;49.322;8.536;2023-03-23T14:09:05;17.00;86.40
19174;DHT22;9719;49.322;8.536;2023-03-23T14:14:14;16.90;87.40
19174;DHT22;9719;49.322;8.536;2023-03-23T14:19:22;16.90;87.40
19174;DHT22;9719;49.322;8.536;2023-03-23T14:24:28;16.90;87.60
19174;DHT22;9719;49.322;8.536;2023-03-23T14:29:31;16.90;87.80
19174;DHT22;9719;49.322;8.536;2023-03-23T14:34:34;16.90;88.00
19174;DHT22;9719;49.322;8.536;2023-03-23T14:39:37;16.90;87.90
19174;DHT22;9719;49.322;8.536;2023-03-23T14:44:42;17.00;88.10
19174;DHT22;9719;49.322;8.536;2023-03-23T14:49:44;17.00;91.10
19174;DHT22;9719;49.322;8.536;2023-03-23T14:54:48;16.80;91.60
19174;DHT22;9719;49.322;8.536;2023-03-23T14:59:51;16.60;92.10
19174;DHT22;9719;49.322;8.536;2023-03-23T15:04:55;16.50;92.70
19174;DHT22;9719;49.322;8.536;2023-03-23T15:10:00;16.60;93.00
19174;DHT22;9719;49.322;8.536;2023-03-23T15:15:05;16.70;94.30
19174;DHT22;9719;49.322;8.536;2023-03-23T15:20:09;16.90;94.20
19174;DHT22;9719;49.322;8.536;2023-03-23T15:25:19;17.20;94.90
19174;DHT22;9719;49.322;8.536;2023-03-23T15:30:31;17.50;92.90
19174;DHT22;9719;49.322;8.536;2023-03-23T15:35:40;17.50;92.10
19174;DHT22;9719;49.322;8.536;2023-03-23T15:40:44;17.40;92.60
19174;DHT22;9719;49.322;8.536;2023-03-23T15:45:54;17.40;92.00
19174;DHT22;9719;49.322;8.536;2023-03-23T15:51:01;17.40;91.70
19174;DHT22;9719;49.322;8.536;2023-03-23T15:56:09;17.40;91.80
19174;DHT22;9719;49.322;8.536;2023-03-23T16:01:14;17.50;91.10
19174;DHT22;9719;49.322;8.536;2023-03-23T16:06:19;17.60;90.50
19174;DHT22;9719;49.322;8.536;2023-03-23T16:11:24;17.80;90.10
19174;DHT22;9719;49.322;8.536;2023-03-23T16:16:28;18.10;88.90
19174;DHT22;9719;49.322;8.536;2023-03-23T16:21:30;18.30;87.50
19174;DHT22;9719;49.322;8.536;2023-03-23T16:26:33;18.30;86.00
19174;DHT22;9719;49.322;8.536;2023-03-23T16:31:35;18.20;85.80
19174;DHT22;9719;49.322;8.536;2023-03-23T16:36:37;18.20;85.50
19174;DHT22;9719;49.322;8.536;2023-03-23T16:41:41;18.20;84.90
19174;DHT22;9719;49.322;8.536;2023-03-23T16:46:43;18.10;84.90
19174;DHT22;9719;49.322;8.536;2023-03-23T16:51:45;18.00;85.00
19174;DHT22;9719;49.322;8.536;2023-03-23T16:56:49;17.80;85.30
19174;DHT22;9719;49.322;8.536;2023-03-23T17:01:50;17.60;85.60
19174;DHT22;9719;49.322;8.536;2023-03-23T17:06:52;17.50;86.10
19174;DHT22;9719;49.322;8.536;2023-03-23T17:11:56;17.40;86.70
19174;DHT22;9719;49.322;8.536;2023-03-23T17:16:58;17.30;87.20
19174;DHT22;9719;49.322;8.536;2023-03-23T17:22:00;17.20;87.90
19174;DHT22;9719;49.322;8.536;2023-03-23T17:27:04;17.00;88.80
19174;DHT22;9719;49.322;8.536;2023-03-23T17:32:07;16.90;89.70
19174;DHT22;9719;49.322;8.536;2023-03-23T17:37:09;16.80;90.10
19174;DHT22;9719;49.322;8.536;2023-03-23T17:42:13;16.70;90.40
19174;DHT22;9719;49.322;8.536;2023-03-23T17:47:15;16.60;90.80
19174;DHT22;9719;49.322;8.536;2023-03-23T17:52:17;16.50;91.20
19174;DHT22;9719;49.322;8.536;2023-03-23T17:57:20;16.40;91.50
19174;DHT22;9719;49.322;8.536;2023-03-23T18:02:22;16.40;91.90
19174;DHT22;9719;49.322;8.536;2023-03-23T18:07:24;16.30;92.10
19174;DHT22;9719;49.322;8.536;2023-03-23T18:12:28;16.30;92.40
19174;DHT22;9719;49.322;8.536;2023-03-23T18:17:30;16.20;92.60
19174;DHT22;9719;49.322;8.536;2023-03-23T18:22:32;16.20;92.80
19174;DHT22;9719;49.322;8.536;2023-03-23T18:27:35;16.20;93.10
19174;DHT22;9719;49.322;8.536;2023-03-23T18:32:38;16.20;93.40
19174;DHT22;9719;49.322;8.536;2023-03-23T18:37:40;16.10;93.50
19174;DHT22;9719;49.322;8.536;2023-03-23T18:42:44;16.10;93.90
19174;DHT22;9719;49.322;8.536;2023-03-23T18:47:46;16.00;94.20
19174;DHT22;9719;49.322;8.536;2023-03-23T18:52:48;16.00;94.50
19174;DHT22;9719;49.322;8.536;2023-03-23T18:57:52;15.90;94.60
19174;DHT22;9719;49.322;8.536;2023-03-23T19:02:54;15.90;94.90
19174;DHT22;9719;49.322;8.536;2023-03-23T19:07:55;15.90;95.00
19174;DHT22;9719;49.322;8.536;2023-03-23T19:12:59;15.90;95.00
19174;DHT22;9719;49.322;8.536;2023-03-23T19:18:01;15.90;95.00
19174;DHT22;9719;49.322;8.536;2023-03-23T19:23:02;15.90;95.30
19174;DHT22;9719;49.322;8.536;2023-03-23T19:28:06;15.90;95.50
19174;DHT22;9719;49.322;8.536;2023-03-23T19:33:07;15.90;95.70
19174;DHT22;9719;49.322;8.536;2023-03-23T19:38:09;15.80;95.70
19174;DHT22;9719;49.322;8.536;2023-03-23T19:43:17;15.70;95.80
19174;DHT22;9719;49.322;8.536;2023-03-23T19:48:40;15.60;96.00
19174;DHT22;9719;49.322;8.536;2023-03-23T19:53:42;15.60;95.90
19174;DHT22;9719;49.322;8.536;2023-03-23T19:58:51;15.60;95.80
19174;DHT22;9719;49.322;8.536;2023-03-23T20:03:55;15.70;95.90
19174;DHT22;9719;49.322;8.536;2023-03-23T20:08:58;15.80;95.70
19174;DHT22;9719;49.322;8.536;2023-03-23T20:14:01;15.80;95.60
19174;DHT22;9719;49.322;8.536;2023-03-23T20:19:03;15.80;95.40
19174;DHT22;9719;49.322;8.536;2023-03-23T20:24:07;15.80;96.80
19174;DHT22;9719;49.322;8.536;2023-03-23T20:29:11;15.80;97.20
19174;DHT22;9719;49.322;8.536;2023-03-23T20:34:16;15.70;97.90
19174;DHT22;9719;49.322;8.536;2023-03-23T20:39:31;15.60;98.40
19174;DHT22;9719;49.322;8.536;2023-03-23T20:44:34;15.50;97.80
19174;DHT22;9719;49.322;8.536;2023-03-23T20:49:38;15.50;98.00
19174;DHT22;9719;49.322;8.536;2023-03-23T20:54:41;15.50;98.20
19174;DHT22;9719;49.322;8.536;2023-03-23T20:59:45;15.50;98.10
19174;DHT22;9719;49.322;8.536;2023-03-23T21:04:47;15.60;98.30
19174;DHT22;9719;49.322;8.536;2023-03-23T21:09:52;15.50;98.20
19174;DHT22;9719;49.322;8.536;2023-03-23T21:14:55;15.60;97.40
19174;DHT22;9719;49.322;8.536;2023-03-23T21:19:57;15.60;97.80
19174;DHT22;9719;49.322;8.536;2023-03-23T21:24:59;15.60;97.80
19174;DHT22;9719;49.322;8.536;2023-03-23T21:30:03;15.60;97.50
19174;DHT22;9719;49.322;8.536;2023-03-23T21:35:06;15.60;97.40
19174;DHT22;9719;49.322;8.536;2023-03-23T21:40:12;15.60;97.50
19174;DHT22;9719;49.322;8.536;2023-03-23T21:45:18;15.60;97.20
19174;DHT22;9719;49.322;8.536;2023-03-23T21:50:20;15.60;97.30
19174;DHT22;9719;49.322;8.536;2023-03-23T21:55:23;15.60;97.00
19174;DHT22;9719;49.322;8.536;2023-03-23T22:00:30;15.50;96.80
19174;DHT22;9719;49.322;8.536;2023-03-23T22:05:33;15.60;96.50
19174;DHT22;9719;49.322;8.536;2023-03-23T22:10:40;15.50;96.30
19174;DHT22;9719;49.322;8.536;2023-03-23T22:15:45;15.50;96.20
19174;DHT22;9719;49.322;8.536;2023-03-23T22:20:47;15.40;96.20
19174;DHT22;9719;49.322;8.536;2023-03-23T22:25:49;15.40;96.00
19174;DHT22;9719;49.322;8.536;2023-03-23T22:30:53;15.40;95.90
19174;DHT22;9719;49.322;8.536;2023-03-23T22:35:55;15.40;95.80
19174;DHT22;9719;49.322;8.536;2023-03-23T22:40:58;15.30;96.10
19174;DHT22;9719;49.322;8.536;2023-03-23T22:46:03;15.20;96.40
19174;DHT22;9719;49.322;8.536;2023-03-23T22:51:06;15.20;96.60
19174;DHT22;9719;49.322;8.536;2023-03-23T22:56:09;15.20;96.70
19174;DHT22;9719;49.322;8.536;2023-03-23T23:01:14;15.10;97.00
19174;DHT22;9719;49.322;8.536;2023-03-23T23:06:18;15.10;97.40
19174;DHT22;9719;49.322;8.536;2023-03-23T23:11:21;15.10;97.30
19174;DHT22;9719;49.322;8.536;2023-03-23T23:16:25;15.10;97.50
19174;DHT22;9719;49.322;8.536;2023-03-23T23:21:27;15.20;97.80
19174;DHT22;9719;49.322;8.536;2023-03-23T23:26:29;15.20;99.10
19174;DHT22;9719;49.322;8.536;2023-03-23T23:31:32;15.20;99.90
19174;DHT22;9719;49.322;8.536;2023-03-23T23:36:34;15.10;99.90
19174;DHT22;9719;49.322;8.536;2023-03-23T23:41:37;15.10;99.90
19174;DHT22;9719;49.322;8.536;2023-03-23T23:46:40;15.10;99.90
19174;DHT22;9719;49.322;8.536;2023-03-23T23:51:42;15.10;99.90
19174;DHT22;9719;49.322;8.536;2023-03-23T23:56:44;15.10;99.90
